createdAt,value
2022-11-01T00:02:08.047Z,159606.25
2022-11-01T00:04:35.662Z,159598.22
2022-11-01T00:07:03.672Z,159600.94
2022-11-01T00:09:31.275Z,159607.63
2022-11-01T00:11:59.064Z,159603.59
2022-11-01T00:14:26.888Z,159598.22
2022-11-01T00:16:54.523Z,159602.25
2022-11-01T00:19:22.253Z,159610.25
2022-11-01T00:21:49.624Z,159615.63
2022-11-01T00:24:17.117Z,159614.28
2022-11-01T00:26:44.324Z,159582.22
2022-11-01T00:29:13.041Z,159586.25
2022-11-01T00:31:40.473Z,159586.25
2022-11-01T00:34:08.700Z,159587.56
2022-11-01T00:36:36.494Z,159571.56
2022-11-01T00:39:05.107Z,159571.56
2022-11-01T00:41:32.613Z,159580.91
2022-11-01T00:44:00.451Z,159568.88
2022-11-01T00:46:27.944Z,159584.88
2022-11-01T00:48:55.556Z,159578.19
2022-11-01T00:51:22.873Z,159584.88
2022-11-01T00:53:50.786Z,159590.22
2022-11-01T00:56:18.386Z,159591.56
2022-11-01T00:58:46.074Z,159592.94
2022-11-01T01:01:13.567Z,159594.25
2022-11-01T01:03:41.285Z,159596.91
2022-11-01T01:06:08.654Z,159604.91
2022-11-01T01:08:36.367Z,159595.59
2022-11-01T01:11:03.644Z,159584.88
2022-11-01T01:13:31.563Z,159582.22
2022-11-01T01:15:58.830Z,159595.59
2022-11-01T01:18:27.509Z,159580.91
2022-11-01T01:21:07.170Z,159598.22
2022-11-01T01:23:34.876Z,159603.59
2022-11-01T01:26:08.926Z,159606.25
2022-11-01T01:28:41.793Z,159606.25
2022-11-01T01:31:12.940Z,159606.25
2022-11-01T01:33:40.805Z,159607.63
2022-11-01T01:36:08.373Z,159614.28
2022-11-01T01:38:35.906Z,159600.94
2022-11-01T01:41:22.104Z,159626.28
2022-11-01T01:43:49.650Z,159624.94
2022-11-01T01:46:16.786Z,159611.59
2022-11-01T01:48:47.004Z,159619.59
2022-11-01T01:51:17.828Z,159607.63
2022-11-01T01:53:49.192Z,159610.25
2022-11-01T01:56:32.099Z,159622.31
2022-11-01T01:59:08.425Z,159620.97
2022-11-01T02:01:38.058Z,159616.94
2022-11-01T02:04:20.112Z,159611.59
2022-11-01T02:06:48.402Z,159624.94
2022-11-01T02:09:16.529Z,159615.63
2022-11-01T02:11:43.840Z,159611.59
2022-11-01T02:14:11.489Z,159608.94
2022-11-01T02:16:47.803Z,159602.25
2022-11-01T02:19:53.164Z,159616.94
2022-11-01T02:22:55.611Z,159619.59
2022-11-01T02:25:45.293Z,159615.63
2022-11-01T02:28:15.405Z,159612.91
2022-11-01T02:31:11.698Z,159610.25
2022-11-01T02:33:44.034Z,159616.94
2022-11-01T02:36:17.330Z,159606.25
2022-11-01T02:38:48.957Z,159615.63
2022-11-01T02:41:25.551Z,159610.25
2022-11-01T02:44:00.444Z,159611.59
2022-11-01T02:46:49.645Z,159610.25
2022-11-01T02:49:18.545Z,159607.63
2022-11-01T02:51:46.610Z,159608.94
2022-11-01T02:54:21.252Z,159616.94
2022-11-01T02:56:50.486Z,159604.91
2022-11-01T02:59:25.868Z,159616.94
2022-11-01T03:02:10.684Z,159611.59
2022-11-01T03:04:38.044Z,159611.59
2022-11-01T03:07:08.340Z,159616.94
2022-11-01T03:09:36.344Z,159612.91
2022-11-01T03:12:09.655Z,159612.91
2022-11-01T03:14:42.771Z,159619.59
2022-11-01T03:17:25.962Z,159611.59
2022-11-01T03:20:05.385Z,159627.66
2022-11-01T03:22:44.189Z,159632.97
2022-11-01T03:25:44.412Z,159607.63
2022-11-01T03:28:26.933Z,159602.25
2022-11-01T03:30:58.127Z,159576.88
2022-11-01T03:33:26.908Z,159584.88
2022-11-01T03:35:56.444Z,159579.56
2022-11-01T03:38:27.728Z,159567.53
2022-11-01T03:40:59.096Z,159583.56
2022-11-01T03:43:27.951Z,159566.22
2022-11-01T03:45:55.266Z,159563.50
2022-11-01T03:48:22.932Z,159544.84
2022-11-01T03:50:52.250Z,159560.84
2022-11-01T03:53:20.449Z,159559.53
2022-11-01T03:55:48.031Z,159570.19
2022-11-01T03:58:15.854Z,159583.56
2022-11-01T04:00:44.969Z,159564.88
2022-11-01T04:03:13.030Z,159560.84
2022-11-01T04:05:41.529Z,159554.19
2022-11-01T04:08:10.935Z,159552.84
2022-11-01T04:10:38.542Z,159550.19
2022-11-01T04:13:06.303Z,159524.81
2022-11-01T04:15:52.614Z,159548.81
2022-11-01T04:21:14.599Z,159506.09
2022-11-01T04:23:42.974Z,159486.06
2022-11-01T04:26:18.410Z,159456.69
2022-11-01T04:28:57.265Z,159463.38
2022-11-01T04:31:29.032Z,159479.38
2022-11-01T04:33:57.451Z,159464.72
2022-11-01T04:36:25.229Z,159423.38
2022-11-01T04:38:57.579Z,159411.34
2022-11-01T04:41:26.642Z,159396.66
2022-11-01T04:43:56.132Z,159400.63
2022-11-01T04:46:23.614Z,159395.34
2022-11-01T04:48:51.295Z,159372.59
2022-11-01T04:51:18.605Z,159357.94
2022-11-01T04:53:45.993Z,159355.28
2022-11-01T04:56:14.072Z,159355.28
2022-11-01T04:58:45.940Z,159359.25
2022-11-01T05:01:15.261Z,159341.94
2022-11-01T05:03:43.455Z,159335.25
2022-11-01T05:06:10.900Z,159340.59
2022-11-01T05:08:38.467Z,159340.59
2022-11-01T05:11:06.065Z,159327.25
2022-11-01T05:13:33.730Z,159315.22
2022-11-01T05:16:21.140Z,159308.53
2022-11-01T05:18:49.345Z,159323.22
2022-11-01T05:21:16.722Z,159327.25
2022-11-01T05:23:44.470Z,159307.22
2022-11-01T05:26:11.784Z,159323.22
2022-11-01T05:28:39.471Z,159327.25
2022-11-01T05:31:06.756Z,159328.56
2022-11-01T05:33:34.240Z,159327.25
2022-11-01T05:36:02.104Z,159297.91
2022-11-01T05:38:29.616Z,159284.56
2022-11-01T05:40:56.711Z,159271.19
2022-11-01T05:43:24.056Z,159276.56
2022-11-01T05:45:51.454Z,159255.16
2022-11-01T05:48:18.855Z,159261.81
2022-11-01T05:50:47.125Z,159265.81
2022-11-01T05:53:14.814Z,159256.47
2022-11-01T05:55:42.175Z,159253.78
2022-11-01T05:58:09.835Z,159241.81
2022-11-01T06:00:37.047Z,159256.47
2022-11-01T06:03:07.950Z,159260.44
2022-11-01T06:05:38.149Z,159253.78
2022-11-01T06:08:06.358Z,159252.44
2022-11-01T06:10:33.840Z,159251.13
2022-11-01T06:13:01.700Z,159251.13
2022-11-01T06:15:29.297Z,159268.50
2022-11-01T06:18:00.177Z,159249.81
2022-11-01T06:20:29.695Z,159257.81
2022-11-01T06:22:58.533Z,159256.47
2022-11-01T06:25:26.922Z,159261.81
2022-11-01T06:27:54.716Z,159256.47
2022-11-01T06:30:22.292Z,159260.44
2022-11-01T06:32:49.939Z,159248.47
2022-11-01T06:35:17.282Z,159249.81
2022-11-01T06:37:44.975Z,159256.47
2022-11-01T06:40:13.082Z,159265.81
2022-11-01T06:42:45.461Z,159261.81
2022-11-01T06:45:14.756Z,159273.84
2022-11-01T06:47:47.088Z,159285.88
2022-11-01T06:50:14.326Z,159284.56
2022-11-01T06:52:42.033Z,159291.22
2022-11-01T06:55:09.270Z,159300.53
2022-11-01T06:57:36.893Z,159288.53
2022-11-01T07:00:05.104Z,159337.91
2022-11-01T07:02:32.842Z,159331.22
2022-11-01T07:05:00.414Z,159340.59
2022-11-01T07:07:28.082Z,159324.59
2022-11-01T07:09:55.485Z,159317.94
2022-11-01T07:12:22.918Z,159329.91
2022-11-01T07:14:50.139Z,159329.91
2022-11-01T07:17:17.671Z,159333.94
2022-11-01T07:19:45.733Z,159337.91
2022-11-01T07:22:14.355Z,159335.25
2022-11-01T07:24:41.538Z,159333.94
2022-11-01T07:27:09.074Z,159352.56
2022-11-01T07:29:36.479Z,159365.94
2022-11-01T07:32:04.170Z,159369.97
2022-11-01T07:34:31.542Z,159355.28
2022-11-01T07:36:59.380Z,159369.97
2022-11-01T07:39:26.776Z,159376.63
2022-11-01T07:41:54.706Z,159352.56
2022-11-01T07:44:22.126Z,159392.63
2022-11-01T07:46:49.702Z,159365.94
2022-11-01T07:49:16.973Z,159379.28
2022-11-01T07:51:44.437Z,159381.97
2022-11-01T07:54:11.859Z,159391.31
2022-11-01T07:56:39.376Z,159380.59
2022-11-01T07:59:06.657Z,159375.31
2022-11-01T08:01:34.204Z,159397.97
2022-11-01T08:04:01.679Z,159396.66
2022-11-01T08:06:29.274Z,159403.34
2022-11-01T08:08:56.601Z,159381.97
2022-11-01T08:11:24.132Z,159401.97
2022-11-01T08:13:51.657Z,159419.34
2022-11-01T08:16:19.310Z,159451.34
2022-11-01T08:18:46.823Z,159475.41
2022-11-01T08:21:18.969Z,159496.78
2022-11-01T08:23:47.568Z,159480.75
2022-11-01T08:26:15.978Z,159492.75
2022-11-01T08:28:43.595Z,159488.75
2022-11-01T08:31:11.737Z,159504.78
2022-11-01T08:33:39.666Z,159502.13
2022-11-01T08:36:07.366Z,159499.41
2022-11-01T08:38:35.505Z,159495.44
2022-11-01T08:41:03.106Z,159492.75
2022-11-01T08:43:30.385Z,159502.13
2022-11-01T08:45:59.191Z,159496.78
2022-11-01T08:48:26.874Z,159507.44
2022-11-01T08:50:54.543Z,159510.13
2022-11-01T08:53:21.953Z,159507.44
2022-11-01T08:55:54.983Z,159503.44
2022-11-01T08:58:22.413Z,159528.78
2022-11-01T09:00:50.151Z,159507.44
2022-11-01T09:03:18.062Z,159508.81
2022-11-01T09:05:45.657Z,159500.81
2022-11-01T09:08:13.714Z,159496.78
2022-11-01T09:10:41.747Z,159482.09
2022-11-01T09:13:09.303Z,159492.75
2022-11-01T09:15:37.077Z,159486.06
2022-11-01T09:18:06.287Z,159492.75
2022-11-01T09:20:34.099Z,159539.50
2022-11-01T09:23:01.722Z,159522.16
2022-11-01T09:25:29.425Z,159500.81
2022-11-01T09:27:58.098Z,159478.06
2022-11-01T09:30:26.331Z,159524.81
2022-11-01T09:32:53.944Z,159536.84
2022-11-01T09:35:21.553Z,159538.16
2022-11-01T09:37:49.076Z,159526.13
2022-11-01T09:40:16.675Z,159519.47
2022-11-01T09:42:44.899Z,159531.50
2022-11-01T09:45:21.794Z,159550.19
2022-11-01T09:47:54.251Z,159562.19
2022-11-01T09:50:31.081Z,159544.84
2022-11-01T09:52:58.529Z,159560.84
2022-11-01T09:56:10.381Z,159570.19
2022-11-01T09:59:02.520Z,159594.25
2022-11-01T10:01:43.000Z,159511.44
2022-11-01T10:04:41.391Z,159624.94
2022-11-01T10:07:19.312Z,159622.31
2022-11-01T10:09:52.205Z,159619.59
2022-11-01T10:12:25.810Z,159634.28
2022-11-01T10:15:30.590Z,159645.00
2022-11-01T10:18:21.340Z,159626.28
2022-11-01T10:20:48.661Z,159631.63
2022-11-01T10:23:17.226Z,159651.69
2022-11-01T10:25:51.338Z,159622.31
2022-11-01T10:28:24.026Z,159630.31
2022-11-01T10:30:55.066Z,159642.34
2022-11-01T10:33:47.602Z,159663.72
2022-11-01T10:36:21.911Z,159681.06
2022-11-01T10:39:52.684Z,159679.72
2022-11-01T10:41:55.103Z,159659.69
2022-11-01T10:44:46.606Z,159654.34
2022-11-01T10:47:19.501Z,159677.06
2022-11-01T10:50:14.817Z,159657.03
2022-11-01T10:53:11.618Z,159669.03
2022-11-01T10:55:43.079Z,159679.72
2022-11-01T10:58:31.203Z,159643.66
2022-11-01T11:01:00.049Z,159669.03
2022-11-01T11:03:31.155Z,159683.72
2022-11-01T11:06:01.277Z,159697.13
2022-11-01T11:08:28.686Z,159693.16
2022-11-01T11:10:59.660Z,159699.81
2022-11-01T11:13:27.042Z,159681.06
2022-11-01T11:16:04.433Z,159705.13
2022-11-01T11:18:38.638Z,159722.53
2022-11-01T11:21:08.971Z,159718.50
2022-11-01T11:23:42.028Z,159721.19
2022-11-01T11:26:13.473Z,159714.50
2022-11-01T11:28:44.492Z,159742.56
2022-11-01T11:31:18.579Z,159747.94
2022-11-01T11:34:05.341Z,159743.91
2022-11-01T11:36:35.543Z,159739.88
2022-11-01T11:39:04.100Z,159715.84
2022-11-01T11:41:37.235Z,159730.53
2022-11-01T11:44:04.834Z,159754.59
2022-11-01T11:46:32.495Z,159745.22
2022-11-01T11:49:04.497Z,159746.56
2022-11-01T11:51:35.746Z,159741.25
2022-11-01T11:54:11.647Z,159757.25
2022-11-01T11:56:39.286Z,159739.88
2022-11-01T11:59:16.785Z,159739.88
2022-11-01T12:01:44.535Z,159731.84
2022-11-01T12:04:16.595Z,159705.13
2022-11-01T12:06:45.505Z,159705.13
2022-11-01T12:09:45.259Z,159697.13
2022-11-01T12:12:32.461Z,159678.41
2022-11-01T12:15:00.546Z,159640.97
2022-11-01T12:17:31.913Z,159631.63
2022-11-01T12:20:10.647Z,159632.97
2022-11-01T12:22:40.647Z,159631.63
2022-11-01T12:25:18.119Z,159635.66
2022-11-01T12:27:55.715Z,159619.59
2022-11-01T12:30:25.203Z,159626.28
2022-11-01T12:32:53.763Z,159622.31
2022-11-01T12:35:23.384Z,159608.94
2022-11-01T12:38:28.376Z,159598.22
2022-11-01T12:41:06.384Z,159622.31
2022-11-01T12:44:09.730Z,159600.94
2022-11-01T12:46:56.514Z,159588.91
2022-11-01T12:49:27.390Z,159570.19
2022-11-01T12:51:57.763Z,159556.81
2022-11-01T12:54:29.298Z,159566.22
2022-11-01T12:56:57.039Z,159560.84
2022-11-01T12:59:33.054Z,159563.50
2022-11-01T13:02:13.720Z,159544.84
2022-11-01T13:05:11.919Z,159543.53
2022-11-01T13:07:54.850Z,159567.53
2022-11-01T13:10:36.834Z,159576.88
2022-11-01T13:13:26.032Z,159592.94
2022-11-01T13:16:20.203Z,159608.94
2022-11-01T13:18:59.822Z,159618.28
2022-11-01T13:21:38.674Z,159637.00
2022-11-01T13:24:07.646Z,159643.66
2022-11-01T13:27:12.221Z,159640.97
2022-11-01T13:30:10.170Z,159654.34
2022-11-01T13:32:47.408Z,159653.00
2022-11-01T13:35:20.854Z,159653.00
2022-11-01T13:37:53.501Z,159659.69
2022-11-01T13:40:32.747Z,159674.38
2022-11-01T13:43:11.659Z,159674.38
2022-11-01T13:45:45.254Z,159686.47
2022-11-01T13:48:42.047Z,159667.69
2022-11-01T13:51:09.497Z,159685.13
2022-11-01T13:53:39.416Z,159686.47
2022-11-01T13:56:13.395Z,159686.47
2022-11-01T13:58:41.156Z,159686.47
2022-11-01T14:01:35.779Z,159693.16
2022-11-01T14:04:08.939Z,159690.44
2022-11-01T14:06:37.526Z,159666.38
2022-11-01T14:09:28.187Z,159653.00
2022-11-01T14:12:09.889Z,159650.34
2022-11-01T14:14:40.280Z,159662.34
2022-11-01T14:17:27.175Z,159665.03
2022-11-01T14:19:58.847Z,159654.34
2022-11-01T14:22:31.099Z,159651.69
2022-11-01T14:25:00.848Z,159624.94
2022-11-01T14:27:35.876Z,159612.91
2022-11-01T14:30:24.210Z,159611.59
2022-11-01T14:32:57.217Z,159572.88
2022-11-01T14:35:38.015Z,159566.22
2022-11-01T14:38:12.520Z,159559.53
2022-11-01T14:40:43.002Z,159550.19
2022-11-01T14:43:19.811Z,159534.13
2022-11-01T14:45:51.234Z,159515.47
2022-11-01T14:48:27.788Z,159514.09
2022-11-01T14:51:00.911Z,159519.47
2022-11-01T14:53:37.621Z,159522.16
2022-11-01T14:56:16.251Z,159522.16
2022-11-01T14:58:44.254Z,159514.09
2022-11-01T15:01:23.577Z,159511.44
2022-11-01T15:03:59.056Z,159494.13
2022-11-01T15:06:28.695Z,159508.81
2022-11-01T15:09:03.822Z,159502.13
2022-11-01T15:11:33.976Z,159514.09
2022-11-01T15:14:03.407Z,159531.50
2022-11-01T15:16:31.250Z,159508.81
2022-11-01T15:19:08.072Z,159507.44
2022-11-01T15:21:46.561Z,159523.50
2022-11-01T15:24:19.529Z,159522.16
2022-11-01T15:26:47.468Z,159498.09
2022-11-01T15:29:17.972Z,159515.47
2022-11-01T15:31:50.621Z,159519.47
2022-11-01T15:34:40.465Z,159523.50
2022-11-01T15:37:29.996Z,159522.16
2022-11-01T15:42:32.272Z,159516.81
2022-11-01T15:45:19.210Z,159519.47
2022-11-01T15:48:10.381Z,159511.44
2022-11-01T15:50:41.364Z,159522.16
2022-11-01T15:53:10.785Z,159510.13
2022-11-01T15:55:42.043Z,159504.78
2022-11-01T15:58:18.524Z,159471.38
2022-11-01T16:00:46.945Z,159499.41
2022-11-01T16:03:17.857Z,159499.41
2022-11-01T16:05:49.065Z,159506.09
2022-11-01T16:08:33.275Z,159506.09
2022-11-01T16:11:00.944Z,159503.44
2022-11-01T16:13:29.869Z,159487.44
2022-11-01T16:16:15.610Z,159492.75
2022-11-01T16:18:45.265Z,159495.44
2022-11-01T16:21:24.972Z,159491.41
2022-11-01T16:24:15.785Z,159494.13
2022-11-01T16:27:03.950Z,159498.09
2022-11-01T16:30:03.056Z,159488.75
2022-11-01T16:32:32.948Z,159507.44
2022-11-01T16:35:25.497Z,159502.13
2022-11-01T16:37:52.901Z,159504.78
2022-11-01T16:40:25.978Z,159522.16
2022-11-01T16:42:59.196Z,159518.13
2022-11-01T16:45:27.046Z,159498.09
2022-11-01T16:47:58.077Z,159494.13
2022-11-01T16:50:26.289Z,159494.13
2022-11-01T16:52:53.727Z,159502.13
2022-11-01T16:55:24.079Z,159500.81
2022-11-01T16:57:54.584Z,159498.09
2022-11-01T17:00:22.233Z,159496.78
2022-11-01T17:02:49.801Z,159499.41
2022-11-01T17:05:20.975Z,159487.44
2022-11-01T17:07:49.325Z,159483.41
2022-11-01T17:10:22.343Z,159470.06
2022-11-01T17:12:49.750Z,159471.38
2022-11-01T17:15:18.193Z,159454.06
2022-11-01T17:17:47.603Z,159456.69
2022-11-01T17:20:26.628Z,159487.44
2022-11-01T17:22:55.747Z,159479.38
2022-11-01T17:25:28.898Z,159462.06
2022-11-01T17:27:56.967Z,159450.03
2022-11-01T17:30:24.613Z,159448.69
2022-11-01T17:32:51.997Z,159443.34
2022-11-01T17:35:21.601Z,159452.72
2022-11-01T17:37:51.584Z,159431.38
2022-11-01T17:40:21.278Z,159431.38
2022-11-01T17:42:48.983Z,159426.00
2022-11-01T17:45:36.971Z,159422.00
2022-11-01T17:48:04.882Z,159432.69
2022-11-01T17:50:33.143Z,159422.00
2022-11-01T17:53:00.675Z,159419.34
2022-11-01T17:55:28.493Z,159408.63
2022-11-01T17:57:56.013Z,159412.66
2022-11-01T18:00:23.504Z,159405.97
2022-11-01T18:02:51.340Z,159414.00
2022-11-01T18:05:18.877Z,159415.31
2022-11-01T18:07:48.925Z,159397.97
2022-11-01T18:10:22.091Z,159387.28
2022-11-01T18:13:07.710Z,159397.97
2022-11-01T18:16:06.593Z,159403.34
2022-11-01T18:18:56.856Z,159403.34
2022-11-01T18:21:42.363Z,159381.97
2022-11-01T18:24:18.502Z,159383.31
2022-11-01T18:26:50.000Z,159383.31
2022-11-01T18:29:21.727Z,159355.28
2022-11-01T18:31:58.938Z,159352.56
2022-11-01T18:34:38.079Z,159367.31
2022-11-01T18:37:20.795Z,159352.56
2022-11-01T18:39:48.298Z,159357.94
2022-11-01T18:42:16.677Z,159351.25
2022-11-01T18:44:44.746Z,159327.25
2022-11-01T18:47:17.576Z,159335.25
2022-11-01T18:49:45.731Z,159341.94
2022-11-01T18:52:16.960Z,159344.56
2022-11-01T18:54:55.180Z,159339.28
2022-11-01T18:57:24.887Z,159324.59
2022-11-01T18:59:53.429Z,159313.91
2022-11-01T19:02:27.741Z,159307.22
2022-11-01T19:05:11.108Z,159313.91
2022-11-01T19:08:04.612Z,159309.88
2022-11-01T19:10:28.463Z,159291.22
2022-11-01T19:12:56.437Z,159308.53
2022-11-01T19:15:29.030Z,159304.56
2022-11-01T19:18:13.079Z,159295.19
2022-11-01T19:20:45.359Z,159255.16
2022-11-01T19:23:16.568Z,159277.88
2022-11-01T19:25:43.923Z,159281.84
2022-11-01T19:28:38.460Z,159288.53
2022-11-01T19:31:31.900Z,159279.19
2022-11-01T19:34:03.194Z,159276.56
2022-11-01T19:39:26.429Z,159264.47
2022-11-01T19:41:56.129Z,159257.81
2022-11-01T19:44:24.871Z,159245.78
2022-11-01T19:47:00.127Z,159253.78
2022-11-01T19:49:30.258Z,159267.13
2022-11-01T19:52:20.283Z,159276.56
2022-11-01T19:54:50.247Z,159268.50
2022-11-01T19:57:39.697Z,159269.81
2022-11-01T20:00:19.350Z,159273.84
2022-11-01T20:02:51.946Z,159277.88
2022-11-01T20:05:23.803Z,159289.91
2022-11-01T20:07:51.198Z,159268.50
2022-11-01T20:10:19.039Z,159289.91
2022-11-01T20:12:46.296Z,159288.53
2022-11-01T20:15:13.840Z,159279.19
2022-11-01T20:17:41.136Z,159292.56
2022-11-01T20:20:09.337Z,159288.53
2022-11-01T20:22:37.816Z,159301.88
2022-11-01T20:25:06.554Z,159299.22
2022-11-01T20:27:34.130Z,159297.91
2022-11-01T20:30:01.841Z,159308.53
2022-11-01T20:32:29.140Z,159299.22
2022-11-01T20:34:57.917Z,159293.88
2022-11-01T20:37:28.829Z,159295.19
2022-11-01T20:39:57.211Z,159299.22
2022-11-01T20:42:24.947Z,159308.53
2022-11-01T20:44:52.662Z,159319.25
2022-11-01T20:47:20.104Z,159313.91
2022-11-01T20:49:48.220Z,159315.22
2022-11-01T20:55:03.701Z,159331.22
2022-11-01T20:57:31.149Z,159327.25
2022-11-01T20:59:58.980Z,159325.91
2022-11-01T21:02:27.477Z,159325.91
2022-11-01T21:05:02.356Z,159325.91
2022-11-01T21:07:31.615Z,159349.94
2022-11-01T21:10:00.017Z,159332.59
2022-11-01T21:12:47.759Z,159347.28
2022-11-01T21:15:37.429Z,159353.94
2022-11-01T21:18:07.765Z,159353.94
2022-11-01T21:20:45.588Z,159340.59
2022-11-01T21:23:15.908Z,159368.63
2022-11-01T21:25:46.329Z,159361.94
2022-11-01T21:28:25.796Z,159371.28
2022-11-01T21:30:53.635Z,159356.59
2022-11-01T21:33:32.433Z,159355.28
2022-11-01T21:36:00.186Z,159356.59
2022-11-01T21:38:34.499Z,159353.94
2022-11-01T21:41:10.240Z,159365.94
2022-11-01T21:43:37.658Z,159384.63
2022-11-01T21:46:05.498Z,159357.94
2022-11-01T21:48:33.537Z,159373.97
2022-11-01T21:51:01.346Z,159373.97
2022-11-01T21:53:28.775Z,159363.28
2022-11-01T21:55:56.499Z,159365.94
2022-11-01T21:58:24.073Z,159349.94
2022-11-01T22:00:51.517Z,159359.25
2022-11-01T22:03:18.964Z,159335.25
2022-11-01T22:05:46.589Z,159332.59
2022-11-01T22:08:14.063Z,159343.25
2022-11-01T22:10:41.752Z,159333.94
2022-11-01T22:13:09.424Z,159348.59
2022-11-01T22:15:37.428Z,159348.59
2022-11-01T22:18:04.731Z,159320.56
2022-11-01T22:20:32.319Z,159309.88
2022-11-01T22:22:59.792Z,159301.88
2022-11-01T22:25:27.371Z,159303.19
2022-11-01T22:27:54.834Z,159301.88
2022-11-01T22:30:22.381Z,159279.19
2022-11-01T22:32:49.657Z,159281.84
2022-11-01T22:35:17.294Z,159281.84
2022-11-01T22:37:44.681Z,159281.84
2022-11-01T22:40:13.477Z,159267.13
2022-11-01T22:42:41.487Z,159248.47
2022-11-01T22:45:14.136Z,159225.75
2022-11-01T22:47:41.732Z,159180.41
2022-11-01T22:50:13.413Z,159157.75
2022-11-01T22:52:43.542Z,159157.75
2022-11-01T22:55:11.347Z,159155.06
2022-11-01T22:57:46.175Z,159157.75
2022-11-01T23:00:32.165Z,159152.41
2022-11-01T23:03:03.418Z,159129.75
2022-11-01T23:05:31.360Z,159115.06
2022-11-01T23:08:00.450Z,159127.03
2022-11-01T23:10:31.813Z,159120.41
2022-11-01T23:13:30.124Z,159117.72
2022-11-01T23:16:02.717Z,159105.69
2022-11-01T23:18:32.566Z,159091.03
2022-11-01T23:21:02.662Z,159104.38
2022-11-01T23:23:29.974Z,159100.41
2022-11-01T23:26:00.060Z,159105.69
2022-11-01T23:28:27.371Z,159115.06
2022-11-01T23:30:55.247Z,159109.72
2022-11-01T23:33:23.654Z,159117.72
2022-11-01T23:35:54.739Z,159123.06
2022-11-01T23:38:27.095Z,159124.38
2022-11-01T23:40:54.703Z,159132.38
2022-11-01T23:43:39.220Z,159137.72
2022-11-01T23:46:07.909Z,159137.72
2022-11-01T23:48:41.596Z,159147.06
2022-11-01T23:51:15.859Z,159144.41
2022-11-01T23:53:43.764Z,159133.72
2022-11-01T23:56:12.624Z,159144.41
2022-11-01T23:58:40.141Z,159156.44
